Mariposa, CA (95338)

7:45 AM PDT on September 02, 2014 (GMT -0700)
Mariposa Fairgrounds | Change Station
CLOSE
Current Station
Personal Weather Station
Location: Mariposa, CA
Elevation: 1851 ft
Nearby Weather Stations

Elev 1851 ft 37.47 °N, 119.95 °W | Updated 1 minute ago

Clear
Clear
69.5 °F
Feels Like 69.5 °F
N
4.0
Wind Variable Wind from NNW
Gusts 4.0 mph

Today
High -- | Low -- °F
--% Chance of Precip.
Yesterday
High -- | Low -- °F
Precip. -- in
6:30 AM 7:26 PM
First Quarter, 52% visible
Pressure 29.87 in
Visibility 10.0 miles
Clouds Clear
Dew Point 50 °F
Humidity 49%
Rainfall 0.00 in
Snow Depth Not available.
UV 1 out of 12
Pollen 9.20 out of 12
Air Quality Not available.
Flu Activity Not available.
METAR KO22 021435Z AUTO 00000KT 10SM CLR 18/07 A2987 RMK AO1

More Conditions Fewer Conditions

Pressure 29.87 in
Visibility 10.0 miles
Clouds Clear
Dew Point 50 °F
Humidity 49%
Rainfall 0.00 in
Snow Depth Not available.
UV 1 out of 12
Pollen 9.20 out of 12
Air Quality Not available.
Flu Activity Not available.
METAR KO22 021435Z AUTO 00000KT 10SM CLR 18/07 A2987 RMK AO1

More Conditions Fewer Conditions

10-Day Weather Forecast

Almanac

Astronomy

Sep. 02, 2014 Rise Set
Actual Time 6:30 AM PDT 7:26 PM PDT
Civil Twilight 6:04 AM PDT 7:53 PM PDT
Nautical Twilight 5:32 AM PDT 8:25 PM PDT
Astronomical Twilight 4:59 AM PDT 8:57 PM PDT
Moon 2:11 PM PDT No Moon Set
Length of Visible Light 13h 49m
Length of Day
12h 56m
Tomorrow will be 2m 19s shorter.
First Quarter, 52% of the Moon is Illuminated
Today
First Quarter
Sep 8
Full
Sep 15
Last Quarter
Sep 24
New
Oct 1
First Quarter

Today's Extremes

State Highs State Lows

Community

WunderPhotos

Upload Photos

1,749,682 photos uploaded!

WunderBlogs® & News

Nearby

Snow Depth

Station Depth Elevation
Leavitt Lake 0 in 9400 ft
Sonora Pass 0 in 8800 ft
Leavitt Meadows 1 in 7200 ft
Summit Meadow 1 in 9122 ft
Blue Lakes 0 in 8000 ft

Earthquake Activity

City Distance Mag. Time & Date
Gilroy, California 92 miles 3.5 9:10 AM PDT
2014-09-01
Gonzales, California 94 miles 2.7 9:48 PM PDT
2014-08-30
Minimum magnitude displayed is 2.5.

Coastal Water Temperatures

Place Temperature
No Stations Reporting

Nearby Weather Stations